No.36 Oyarikimaru — JK5430 — position and weather

sailwx.info

Track history (hours):
 
Tides and Currents Weather Stations Pressure Air Temp Water Temp Dewpoint Dewpoint Depression Visibility Wind Speed Wind Dir Waves Ship Positions

No.36 Oyarikimaru

Last reported at 2017-Nov-15 23:22 UTC. Time now 2017-Nov-17 21:07 UTC.
Position N 34°36' E 135°04'.

Length 63 m.

Type: Cargo ship. MMSI: 431400544.

Date/timePositionNaut miles runAvg speedWind from/ knotsBaromVisibWave heightAir tempDewpointWater temp
2017-Nov-15 23:22N 34°36' E 135°04'2310.6
2017-Nov-15 21:12N 34°13' E 134°59'  
2017-Nov-13 01:57N 34°36' E 135°04'511.3
2017-Nov-13 01:30N 34°39' E 135°09'0 0.3
2017-Nov-13 01:00N 34°39' E 135°09'0 0.0
2017-Nov-13 00:30N 34°39' E 135°09'0 0.0
2017-Nov-13 00:00N 34°39' E 135°09'0 0.0
2017-Nov-12 23:24N 34°39' E 135°09'0 0.0
2017-Nov-12 22:54N 34°39' E 135°09'0 0.0
2017-Nov-12 22:18N 34°39' E 135°09'0 0.0
2017-Nov-12 22:00N 34°39' E 135°09'1 1.1
2017-Nov-12 21:30N 34°38' E 135°09'1 1.1
2017-Nov-12 20:55N 34°38' E 135°09'0 0.0
2017-Nov-12 20:27N 34°38' E 135°09'0 0.0
2017-Nov-12 19:59N 34°38' E 135°09'0 0.0
2017-Nov-12 19:29N 34°38' E 135°09'0 0.0
2017-Nov-12 18:59N 34°38' E 135°09'0 0.0
2017-Nov-12 18:29N 34°38' E 135°09'0 0.0
2017-Nov-12 17:59N 34°38' E 135°09'0 0.0
2017-Nov-12 17:29N 34°38' E 135°09'0 0.0
2017-Nov-12 16:59N 34°38' E 135°09'0 0.1
2017-Nov-12 16:29N 34°38' E 135°09'0 0.0
2017-Nov-12 15:59N 34°38' E 135°09'0 0.0
2017-Nov-12 15:23N 34°38' E 135°09'0 0.0
2017-Nov-12 14:59N 34°38' E 135°09'0 0.0
2017-Nov-12 14:23N 34°38' E 135°09'0 0.0
2017-Nov-12 13:59N 34°38' E 135°09'0 0.0
2017-Nov-12 13:29N 34°38' E 135°09'0 0.0
2017-Nov-12 12:59N 34°38' E 135°09'0 0.0
2017-Nov-12 12:17N 34°38' E 135°09'0 0.0
2017-Nov-12 11:59N 34°38' E 135°09'0 0.0
2017-Nov-12 11:29N 34°38' E 135°09'0 0.0
2017-Nov-12 10:41N 34°38' E 135°09'0 0.0
2017-Nov-12 10:11N 34°38' E 135°09'0 0.2
2017-Nov-12 09:58N 34°38' E 135°09'4 9.0
2017-Nov-12 09:30N 34°35' E 135°05'2 0.1
2017-Nov-11 07:16N 34°36' E 135°04'411.9
2017-Nov-11 06:57N 34°37' E 135°08'511.6
2017-Nov-11 06:30N 34°38' E 135°15'4 7.4
2017-Nov-11 05:55N 34°42' E 135°15'0 0.0
2017-Nov-11 05:25N 34°42' E 135°15'0 0.0
2017-Nov-11 04:55N 34°42' E 135°15'0 0.0
2017-Nov-11 04:19N 34°42' E 135°15'0 0.0
2017-Nov-11 03:49N 34°42' E 135°15'0 0.0
2017-Nov-11 03:25N 34°42' E 135°15'0 0.0
2017-Nov-11 02:55N 34°42' E 135°15'0 0.0
2017-Nov-11 02:19N 34°42' E 135°15'0 0.0
2017-Nov-11 01:55N 34°42' E 135°15'0 0.0
2017-Nov-11 01:25N 34°42' E 135°15'0 0.0
2017-Nov-11 00:55N 34°42' E 135°15'0 0.0
2017-Nov-11 00:25N 34°42' E 135°15'0 0.0
2017-Nov-10 23:55N 34°42' E 135°15'0 0.0
2017-Nov-10 23:25N 34°42' E 135°15'0 1.0
2017-Nov-10 23:00N 34°42' E 135°15'0 0.0
2017-Nov-10 22:24N 34°42' E 135°15'0 0.0
2017-Nov-10 22:00N 34°42' E 135°15'0 0.1
2017-Nov-10 21:30N 34°42' E 135°15'0 0.0
2017-Nov-10 20:55N 34°42' E 135°15'0 0.0
2017-Nov-10 20:24N 34°42' E 135°15'0 0.0
2017-Nov-10 20:00N 34°42' E 135°15'0 0.0
2017-Nov-10 19:30N 34°42' E 135°15'0 0.0
2017-Nov-10 19:00N 34°42' E 135°15'0 0.1
2017-Nov-10 18:24N 34°42' E 135°15'0 0.0
2017-Nov-10 18:00N 34°42' E 135°15'0 0.0
2017-Nov-10 17:18N 34°42' E 135°15'0 0.2
2017-Nov-10 17:00N 34°42' E 135°15'0 0.1
2017-Nov-10 16:30N 34°42' E 135°15'0 0.1
2017-Nov-10 16:00N 34°42' E 135°15'0 0.0
2017-Nov-10 15:30N 34°42' E 135°15'0 0.0
2017-Nov-10 14:54N 34°42' E 135°15'0 0.0
2017-Nov-10 14:30N 34°42' E 135°15'0 0.0
2017-Nov-10 13:48N 34°42' E 135°15'0 0.0
2017-Nov-10 13:12N 34°42' E 135°15'0 0.0
2017-Nov-10 13:00N 34°42' E 135°15'0 0.1
2017-Nov-10 12:30N 34°42' E 135°15'4 8.0
2017-Nov-10 11:59N 34°38' E 135°15'612.6
2017-Nov-10 11:29N 34°35' E 135°08'  
2017-Nov-07 04:12N 34°37' E 135°06'313.0
2017-Nov-07 03:57N 34°38' E 135°09'1 1.0
2017-Nov-07 03:25N 34°39' E 135°09'0 0.0
2017-Nov-07 02:34N 34°39' E 135°09'0 0.0
2017-Nov-07 02:22N 34°39' E 135°09'0 0.0
2017-Nov-07 01:16N 34°39' E 135°09'0 0.0
2017-Nov-07 00:58N 34°39' E 135°09'0 0.0
2017-Nov-07 00:22N 34°39' E 135°09'0 0.0
2017-Nov-06 23:58N 34°39' E 135°09'0 0.0
2017-Nov-06 23:28N 34°39' E 135°09'1 1.4
2017-Nov-06 22:55N 34°38' E 135°09'0 0.0
2017-Nov-06 22:25N 34°38' E 135°09'0 0.0
2017-Nov-06 21:43N 34°38' E 135°09'0 0.0
2017-Nov-06 21:25N 34°38' E 135°09'0 0.0
2017-Nov-06 20:55N 34°38' E 135°09'0 0.0
2017-Nov-06 20:13N 34°38' E 135°09'5 0.2
2017-Nov-06 00:52N 34°36' E 135°04'513.0
2017-Nov-06 00:30N 34°39' E 135°09'  
Track history (hours):
 
Tides and Currents Weather Stations Pressure Air Temp Water Temp Dewpoint Dewpoint Depression Visibility Wind Speed Wind Dir Waves Ship Positions

No.36 Oyarikimaru

Last reported at 2017-Nov-15 23:22 UTC. Time now 2017-Nov-17 21:07 UTC.
Position N 34°36' E 135°04'.

Length 63 m.

Type: Cargo ship. MMSI: 431400544.

Date/timePositionNaut miles runAvg speedWind from/ knotsBaromVisibWave heightAir tempDewpointWater temp
2017-Nov-15 23:22N 34°36' E 135°04'2310.6
2017-Nov-15 21:12N 34°13' E 134°59'  
2017-Nov-13 01:57N 34°36' E 135°04'511.3
2017-Nov-13 01:30N 34°39' E 135°09'0 0.3
2017-Nov-13 01:00N 34°39' E 135°09'0 0.0
2017-Nov-13 00:30N 34°39' E 135°09'0 0.0
2017-Nov-13 00:00N 34°39' E 135°09'0 0.0
2017-Nov-12 23:24N 34°39' E 135°09'0 0.0
2017-Nov-12 22:54N 34°39' E 135°09'0 0.0
2017-Nov-12 22:18N 34°39' E 135°09'0 0.0
2017-Nov-12 22:00N 34°39' E 135°09'1 1.1
2017-Nov-12 21:30N 34°38' E 135°09'1 1.1
2017-Nov-12 20:55N 34°38' E 135°09'0 0.0
2017-Nov-12 20:27N 34°38' E 135°09'0 0.0
2017-Nov-12 19:59N 34°38' E 135°09'0 0.0
2017-Nov-12 19:29N 34°38' E 135°09'0 0.0
2017-Nov-12 18:59N 34°38' E 135°09'0 0.0
2017-Nov-12 18:29N 34°38' E 135°09'0 0.0
2017-Nov-12 17:59N 34°38' E 135°09'0 0.0
2017-Nov-12 17:29N 34°38' E 135°09'0 0.0
2017-Nov-12 16:59N 34°38' E 135°09'0 0.1
2017-Nov-12 16:29N 34°38' E 135°09'0 0.0
2017-Nov-12 15:59N 34°38' E 135°09'0 0.0
2017-Nov-12 15:23N 34°38' E 135°09'0 0.0
2017-Nov-12 14:59N 34°38' E 135°09'0 0.0
2017-Nov-12 14:23N 34°38' E 135°09'0 0.0
2017-Nov-12 13:59N 34°38' E 135°09'0 0.0
2017-Nov-12 13:29N 34°38' E 135°09'0 0.0
2017-Nov-12 12:59N 34°38' E 135°09'0 0.0
2017-Nov-12 12:17N 34°38' E 135°09'0 0.0
2017-Nov-12 11:59N 34°38' E 135°09'0 0.0
2017-Nov-12 11:29N 34°38' E 135°09'0 0.0
2017-Nov-12 10:41N 34°38' E 135°09'0 0.0
2017-Nov-12 10:11N 34°38' E 135°09'0 0.2
2017-Nov-12 09:58N 34°38' E 135°09'4 9.0
2017-Nov-12 09:30N 34°35' E 135°05'2 0.1
2017-Nov-11 07:16N 34°36' E 135°04'411.9
2017-Nov-11 06:57N 34°37' E 135°08'511.6
2017-Nov-11 06:30N 34°38' E 135°15'4 7.4
2017-Nov-11 05:55N 34°42' E 135°15'0 0.0
2017-Nov-11 05:25N 34°42' E 135°15'0 0.0
2017-Nov-11 04:55N 34°42' E 135°15'0 0.0
2017-Nov-11 04:19N 34°42' E 135°15'0 0.0
2017-Nov-11 03:49N 34°42' E 135°15'0 0.0
2017-Nov-11 03:25N 34°42' E 135°15'0 0.0
2017-Nov-11 02:55N 34°42' E 135°15'0 0.0
2017-Nov-11 02:19N 34°42' E 135°15'0 0.0
2017-Nov-11 01:55N 34°42' E 135°15'0 0.0
2017-Nov-11 01:25N 34°42' E 135°15'0 0.0
2017-Nov-11 00:55N 34°42' E 135°15'0 0.0
2017-Nov-11 00:25N 34°42' E 135°15'0 0.0
2017-Nov-10 23:55N 34°42' E 135°15'0 0.0
2017-Nov-10 23:25N 34°42' E 135°15'0 1.0
2017-Nov-10 23:00N 34°42' E 135°15'0 0.0
2017-Nov-10 22:24N 34°42' E 135°15'0 0.0
2017-Nov-10 22:00N 34°42' E 135°15'0 0.1
2017-Nov-10 21:30N 34°42' E 135°15'0 0.0
2017-Nov-10 20:55N 34°42' E 135°15'0 0.0
2017-Nov-10 20:24N 34°42' E 135°15'0 0.0
2017-Nov-10 20:00N 34°42' E 135°15'0 0.0
2017-Nov-10 19:30N 34°42' E 135°15'0 0.0
2017-Nov-10 19:00N 34°42' E 135°15'0 0.1
2017-Nov-10 18:24N 34°42' E 135°15'0 0.0
2017-Nov-10 18:00N 34°42' E 135°15'0 0.0
2017-Nov-10 17:18N 34°42' E 135°15'0 0.2
2017-Nov-10 17:00N 34°42' E 135°15'0 0.1
2017-Nov-10 16:30N 34°42' E 135°15'0 0.1
2017-Nov-10 16:00N 34°42' E 135°15'0 0.0
2017-Nov-10 15:30N 34°42' E 135°15'0 0.0
2017-Nov-10 14:54N 34°42' E 135°15'0 0.0
2017-Nov-10 14:30N 34°42' E 135°15'0 0.0
2017-Nov-10 13:48N 34°42' E 135°15'0 0.0
2017-Nov-10 13:12N 34°42' E 135°15'0 0.0
2017-Nov-10 13:00N 34°42' E 135°15'0 0.1
2017-Nov-10 12:30N 34°42' E 135°15'4 8.0
2017-Nov-10 11:59N 34°38' E 135°15'612.6
2017-Nov-10 11:29N 34°35' E 135°08'  
2017-Nov-07 04:12N 34°37' E 135°06'313.0
2017-Nov-07 03:57N 34°38' E 135°09'1 1.0
2017-Nov-07 03:25N 34°39' E 135°09'0 0.0
2017-Nov-07 02:34N 34°39' E 135°09'0 0.0
2017-Nov-07 02:22N 34°39' E 135°09'0 0.0
2017-Nov-07 01:16N 34°39' E 135°09'0 0.0
2017-Nov-07 00:58N 34°39' E 135°09'0 0.0
2017-Nov-07 00:22N 34°39' E 135°09'0 0.0
2017-Nov-06 23:58N 34°39' E 135°09'0 0.0
2017-Nov-06 23:28N 34°39' E 135°09'1 1.4
2017-Nov-06 22:55N 34°38' E 135°09'0 0.0
2017-Nov-06 22:25N 34°38' E 135°09'0 0.0
2017-Nov-06 21:43N 34°38' E 135°09'0 0.0
2017-Nov-06 21:25N 34°38' E 135°09'0 0.0
2017-Nov-06 20:55N 34°38' E 135°09'0 0.0
2017-Nov-06 20:13N 34°38' E 135°09'5 0.2
2017-Nov-06 00:52N 34°36' E 135°04'513.0
2017-Nov-06 00:30N 34°39' E 135°09'  

Dump ship's entire track history